createdAt,value
2018-05-09T00:02:07.917Z,70.00
2018-05-09T00:04:36.290Z,70.00
2018-05-09T00:07:04.545Z,70.20
2018-05-09T00:09:32.609Z,70.90
2018-05-09T00:12:00.966Z,71.10
2018-05-09T00:14:28.960Z,71.60
2018-05-09T00:16:57.073Z,71.90
2018-05-09T00:19:26.425Z,71.80
2018-05-09T00:21:56.145Z,72.00
2018-05-09T00:24:24.233Z,72.00
2018-05-09T00:26:52.325Z,72.00
2018-05-09T00:29:21.169Z,73.00
2018-05-09T00:31:49.430Z,72.90
2018-05-09T00:34:17.546Z,73.20
2018-05-09T00:36:45.596Z,73.60
2018-05-09T00:39:13.684Z,73.60
2018-05-09T00:41:42.073Z,73.60
2018-05-09T00:44:10.137Z,73.60
2018-05-09T00:46:38.209Z,73.60
2018-05-09T00:49:06.305Z,74.00
2018-05-09T00:51:35.136Z,73.70
2018-05-09T00:54:03.238Z,73.50
2018-05-09T00:56:31.609Z,73.60
2018-05-09T00:58:59.677Z,73.80
2018-05-09T01:01:27.765Z,75.10
2018-05-09T01:03:56.013Z,75.00
2018-05-09T01:06:24.072Z,75.80
2018-05-09T01:08:52.150Z,75.50
2018-05-09T01:11:20.229Z,75.80
2018-05-09T01:13:48.313Z,75.90
2018-05-09T01:16:16.369Z,75.80
2018-05-09T01:18:44.748Z,75.80
2018-05-09T01:21:12.832Z,75.50
2018-05-09T01:23:40.895Z,75.60
2018-05-09T01:26:09.832Z,76.20
2018-05-09T01:28:38.668Z,76.10
2018-05-09T01:31:06.730Z,76.10
2018-05-09T01:33:35.252Z,75.60
2018-05-09T01:36:03.300Z,76.00
2018-05-09T01:38:31.461Z,76.50
2018-05-09T01:40:59.854Z,76.20
2018-05-09T01:43:27.933Z,76.30
2018-05-09T01:45:56.193Z,77.20
2018-05-09T01:48:24.705Z,77.70
2018-05-09T01:50:53.527Z,78.20
2018-05-09T01:53:21.584Z,77.80
2018-05-09T01:55:49.912Z,78.10
2018-05-09T01:58:17.982Z,77.80
2018-05-09T02:00:46.021Z,77.80
2018-05-09T02:03:14.436Z,78.00
2018-05-09T02:05:42.501Z,77.70
2018-05-09T02:08:10.592Z,77.60
2018-05-09T02:10:39.188Z,77.40
2018-05-09T02:13:07.261Z,77.20
2018-05-09T02:15:35.307Z,77.90
2018-05-09T02:18:03.378Z,78.60
2018-05-09T02:20:31.461Z,78.60
2018-05-09T02:22:59.523Z,79.10
2018-05-09T02:25:27.896Z,79.20
2018-05-09T02:27:55.981Z,79.00
2018-05-09T02:30:24.037Z,79.10
2018-05-09T02:32:52.317Z,79.70
2018-05-09T02:35:20.579Z,79.50
2018-05-09T02:37:48.655Z,79.80
2018-05-09T02:40:16.765Z,79.60
2018-05-09T02:42:44.838Z,79.70
2018-05-09T02:45:12.929Z,79.80
2018-05-09T02:47:42.800Z,80.30
2018-05-09T02:50:10.892Z,80.20
2018-05-09T02:52:38.970Z,80.20
2018-05-09T02:55:07.444Z,80.40
2018-05-09T02:57:35.493Z,80.40
2018-05-09T03:00:03.650Z,80.30
2018-05-09T03:02:32.051Z,80.10
2018-05-09T03:05:00.115Z,80.10
2018-05-09T03:07:28.199Z,80.00
2018-05-09T03:09:56.330Z,79.60
2018-05-09T03:12:25.198Z,80.50
2018-05-09T03:14:54.025Z,82.60
2018-05-09T03:17:22.413Z,82.50
2018-05-09T03:19:50.473Z,82.50
2018-05-09T03:22:18.578Z,82.00
2018-05-09T03:24:47.175Z,81.90
2018-05-09T03:27:15.264Z,81.60
2018-05-09T03:29:44.124Z,80.90
2018-05-09T03:32:12.185Z,80.80
2018-05-09T03:34:40.272Z,81.00
2018-05-09T03:37:08.541Z,81.50
2018-05-09T03:39:36.801Z,81.70
2018-05-09T03:42:04.880Z,81.80
2018-05-09T03:44:32.969Z,82.10
2018-05-09T03:47:01.049Z,81.80
2018-05-09T03:49:29.113Z,81.60
2018-05-09T03:51:57.164Z,82.30
2018-05-09T03:54:25.758Z,82.20
2018-05-09T03:56:53.808Z,82.20
2018-05-09T03:59:21.897Z,82.10
2018-05-09T04:01:50.008Z,81.80
2018-05-09T04:04:20.030Z,81.00
2018-05-09T04:06:48.873Z,82.30
2018-05-09T04:09:16.945Z,82.30
2018-05-09T04:11:45.312Z,82.70
2018-05-09T04:14:13.368Z,83.10
2018-05-09T04:16:42.172Z,83.10
2018-05-09T04:19:10.253Z,81.90
2018-05-09T04:21:39.263Z,81.60
2018-05-09T04:24:07.317Z,82.00
2018-05-09T04:26:35.381Z,82.10
2018-05-09T04:29:03.765Z,81.90
2018-05-09T04:31:31.841Z,81.50
2018-05-09T04:33:59.912Z,81.00
2018-05-09T04:36:27.974Z,80.60
2018-05-09T04:38:56.073Z,81.00
2018-05-09T04:41:24.145Z,80.90
2018-05-09T04:43:52.538Z,80.80
2018-05-09T04:46:22.290Z,80.10
2018-05-09T04:48:50.372Z,80.00
2018-05-09T04:51:18.449Z,79.70
2018-05-09T04:53:46.529Z,79.90
2018-05-09T04:56:14.592Z,79.90
2018-05-09T04:58:43.022Z,79.70
2018-05-09T05:01:11.849Z,79.50
2018-05-09T05:03:40.782Z,79.50
2018-05-09T05:06:08.849Z,79.10
2018-05-09T05:08:36.921Z,79.10
2018-05-09T05:11:05.204Z,78.90
2018-05-09T05:13:33.284Z,78.60
2018-05-09T05:16:01.353Z,78.40
2018-05-09T05:18:29.693Z,78.00
2018-05-09T05:20:58.585Z,77.90
2018-05-09T05:23:26.641Z,78.00
2018-05-09T05:25:55.353Z,78.00
2018-05-09T05:28:23.421Z,77.70
2018-05-09T05:30:52.533Z,77.60
2018-05-09T05:33:21.541Z,77.80
2018-05-09T05:35:50.314Z,77.80
2018-05-09T05:38:19.311Z,77.00
2018-05-09T05:40:47.398Z,75.40
2018-05-09T05:43:17.515Z,74.60
2018-05-09T05:45:47.004Z,75.20
2018-05-09T05:48:15.872Z,74.70
2018-05-09T05:50:44.885Z,74.60
2018-05-09T05:53:14.776Z,73.90
2018-05-09T05:55:44.026Z,73.60
2018-05-09T05:58:13.487Z,71.50
2018-05-09T06:00:42.405Z,71.50
2018-05-09T06:03:11.306Z,70.50
2018-05-09T06:05:41.113Z,68.90
2018-05-09T06:08:09.157Z,68.90
2018-05-09T06:10:37.483Z,67.80
2018-05-09T06:13:06.166Z,67.30
2018-05-09T06:15:35.012Z,64.30
2018-05-09T06:18:03.817Z,64.30
2018-05-09T06:20:31.912Z,63.20
2018-05-09T06:23:02.213Z,61.30
2018-05-09T06:25:31.745Z,60.80
2018-05-09T06:28:01.385Z,60.80
2018-05-09T06:30:29.481Z,60.70
2018-05-09T06:32:57.545Z,60.00
2018-05-09T06:35:26.557Z,59.70
2018-05-09T06:37:55.581Z,59.60
2018-05-09T06:40:26.037Z,59.00
2018-05-09T06:42:54.110Z,59.00
2018-05-09T06:45:22.942Z,58.10
2018-05-09T06:47:52.231Z,57.80
2018-05-09T06:50:20.575Z,57.10
2018-05-09T06:52:49.592Z,56.90
2018-05-09T06:55:18.316Z,56.50
2018-05-09T06:57:47.154Z,55.20
2018-05-09T07:00:15.967Z,55.00
2018-05-09T07:02:44.695Z,54.60
2018-05-09T07:05:13.575Z,52.20
2018-05-09T07:07:42.459Z,52.30
2018-05-09T07:10:11.305Z,51.90
2018-05-09T07:12:40.120Z,51.90
2018-05-09T07:15:08.603Z,52.10
2018-05-09T07:17:36.693Z,51.30
2018-05-09T07:20:06.101Z,47.20
2018-05-09T07:22:35.368Z,44.70
2018-05-09T07:25:04.249Z,44.60
2018-05-09T07:27:33.194Z,41.50
2018-05-09T07:30:02.797Z,43.00
2018-05-09T07:32:33.053Z,40.70
2018-05-09T07:35:02.777Z,40.70
2018-05-09T07:37:31.857Z,38.40
2018-05-09T07:40:00.952Z,36.60
2018-05-09T07:42:29.871Z,36.10
2018-05-09T07:45:00.223Z,36.90
2018-05-09T07:47:30.033Z,37.00
2018-05-09T07:49:59.764Z,36.30
2018-05-09T07:52:29.683Z,36.30
2018-05-09T07:54:58.550Z,37.00
2018-05-09T07:57:28.163Z,35.80
2018-05-09T07:59:57.990Z,39.40
2018-05-09T08:02:27.467Z,39.40
2018-05-09T08:04:55.645Z,37.20
2018-05-09T08:07:27.050Z,34.10
2018-05-09T08:09:56.751Z,34.10
2018-05-09T08:12:24.886Z,33.00
2018-05-09T08:14:54.003Z,33.40
2018-05-09T08:17:22.716Z,33.20
2018-05-09T08:19:51.705Z,32.30
2018-05-09T08:22:21.285Z,30.90
2018-05-09T08:24:51.455Z,29.90
2018-05-09T08:27:20.735Z,28.80
2018-05-09T08:29:49.695Z,29.20
2018-05-09T08:32:19.697Z,29.20
2018-05-09T08:34:49.386Z,30.60
2018-05-09T08:37:18.357Z,32.10
2018-05-09T08:39:47.607Z,31.70
2018-05-09T08:42:16.642Z,31.40
2018-05-09T08:44:45.800Z,31.90
2018-05-09T08:47:14.149Z,29.60
2018-05-09T08:49:44.201Z,28.70
2018-05-09T08:52:13.419Z,27.50
2018-05-09T08:54:44.670Z,27.10
2018-05-09T08:57:13.743Z,27.00
2018-05-09T08:59:43.697Z,28.50
2018-05-09T09:02:12.740Z,28.40
2018-05-09T09:04:44.071Z,28.30
2018-05-09T09:07:13.768Z,27.60
2018-05-09T09:09:42.942Z,27.50
2018-05-09T09:12:11.880Z,26.20
2018-05-09T09:14:41.336Z,25.40
2018-05-09T09:17:15.221Z,25.40
2018-05-09T09:19:45.108Z,25.80
2018-05-09T09:22:14.611Z,25.70
2018-05-09T09:24:44.362Z,25.00
2018-05-09T09:27:13.357Z,24.90
2018-05-09T09:29:42.425Z,24.80
2018-05-09T09:32:11.908Z,23.70
2018-05-09T09:34:41.620Z,23.60
2018-05-09T09:37:11.628Z,23.30
2018-05-09T09:39:40.692Z,23.20
2018-05-09T09:42:09.495Z,23.70
2018-05-09T09:44:38.305Z,23.60
2018-05-09T09:47:07.245Z,23.70
2018-05-09T09:49:36.099Z,23.90
2018-05-09T09:52:05.695Z,23.00
2018-05-09T09:54:34.502Z,23.00
2018-05-09T09:57:04.063Z,22.60
2018-05-09T09:59:33.010Z,22.60
2018-05-09T10:02:01.649Z,25.20
2018-05-09T10:04:30.505Z,26.60
2018-05-09T10:06:59.258Z,26.40
2018-05-09T10:09:28.124Z,25.70
2018-05-09T10:11:56.673Z,24.80
2018-05-09T10:14:26.433Z,24.30
2018-05-09T10:16:56.306Z,23.40
2018-05-09T10:19:25.127Z,23.40
2018-05-09T10:21:54.590Z,23.00
2018-05-09T10:24:23.626Z,23.00
2018-05-09T10:26:53.350Z,22.60
2018-05-09T10:29:22.274Z,23.30
2018-05-09T10:31:51.119Z,23.30
2018-05-09T10:34:21.099Z,26.10
2018-05-09T10:36:50.238Z,26.10
2018-05-09T10:39:19.989Z,26.30
2018-05-09T10:41:48.874Z,26.30
2018-05-09T10:44:17.014Z,25.00
2018-05-09T10:46:46.629Z,23.90
2018-05-09T10:49:17.365Z,22.90
2018-05-09T10:51:46.653Z,22.90
2018-05-09T10:54:17.052Z,26.30
2018-05-09T10:56:46.292Z,26.20
2018-05-09T10:59:16.229Z,25.80
2018-05-09T11:01:45.618Z,25.80
2018-05-09T11:04:14.425Z,24.90
2018-05-09T11:06:43.254Z,24.40
2018-05-09T11:09:11.945Z,24.40
2018-05-09T11:11:40.938Z,26.10
2018-05-09T11:14:10.141Z,26.20
2018-05-09T11:16:38.946Z,28.10
2018-05-09T11:19:08.564Z,29.20
2018-05-09T11:21:37.397Z,29.20
2018-05-09T11:24:05.458Z,30.20
2018-05-09T11:26:34.905Z,31.70
2018-05-09T11:29:04.306Z,30.80
2018-05-09T11:31:33.821Z,29.50
2018-05-09T11:34:02.400Z,29.40
2018-05-09T11:36:31.800Z,28.00
2018-05-09T11:39:00.684Z,28.00
2018-05-09T11:41:29.687Z,27.70
2018-05-09T11:43:58.569Z,28.80
2018-05-09T11:46:28.185Z,29.60
2018-05-09T11:48:57.682Z,29.60
2018-05-09T11:51:26.477Z,29.60
2018-05-09T11:53:55.832Z,27.80
2018-05-09T11:56:23.901Z,27.70
2018-05-09T11:58:52.709Z,26.50
2018-05-09T12:01:21.308Z,25.70
2018-05-09T12:03:50.198Z,26.40
2018-05-09T12:06:20.731Z,26.20
2018-05-09T12:08:52.456Z,27.30
2018-05-09T12:11:21.389Z,27.30
2018-05-09T12:13:50.997Z,29.10
2018-05-09T12:16:19.839Z,29.00
2018-05-09T12:18:47.933Z,29.10
2018-05-09T12:21:16.030Z,29.70
2018-05-09T12:23:45.198Z,29.40
2018-05-09T12:26:14.118Z,29.40
2018-05-09T12:28:42.990Z,28.80
2018-05-09T12:31:11.742Z,28.70
2018-05-09T12:33:39.808Z,28.40
2018-05-09T12:36:08.969Z,29.10
2018-05-09T12:38:38.464Z,29.00
2018-05-09T12:41:09.061Z,28.90
2018-05-09T12:43:37.142Z,28.90
2018-05-09T12:46:05.212Z,29.60
2018-05-09T12:48:33.367Z,29.50
2018-05-09T12:51:01.395Z,30.00
2018-05-09T12:53:30.879Z,29.10
2018-05-09T12:55:59.451Z,29.00
2018-05-09T12:58:27.897Z,27.60
2018-05-09T13:00:56.034Z,26.60
2018-05-09T13:03:25.128Z,27.00
2018-05-09T13:05:54.810Z,27.40
2018-05-09T13:08:23.827Z,27.20
2018-05-09T13:10:52.722Z,29.00
2018-05-09T13:13:22.390Z,28.00
2018-05-09T13:15:51.227Z,28.20
2018-05-09T13:18:20.059Z,27.20
2018-05-09T13:20:48.637Z,27.10
2018-05-09T13:23:17.134Z,26.70
2018-05-09T13:25:45.921Z,25.80
2018-05-09T13:28:14.724Z,24.90
2018-05-09T13:30:43.525Z,25.60
2018-05-09T13:33:13.230Z,25.70
2018-05-09T13:35:41.809Z,25.60
2018-05-09T13:38:10.394Z,26.70
2018-05-09T13:40:39.922Z,28.50
2018-05-09T13:43:08.756Z,27.60
2018-05-09T13:45:37.700Z,27.60
2018-05-09T13:48:06.581Z,28.20
2018-05-09T13:50:34.661Z,28.20
2018-05-09T13:53:03.553Z,27.80
2018-05-09T13:55:33.245Z,27.60
2018-05-09T13:58:02.763Z,27.80
2018-05-09T14:00:30.833Z,27.80
2018-05-09T14:03:00.534Z,27.10
2018-05-09T14:05:28.582Z,27.60
2018-05-09T14:07:57.473Z,27.30
2018-05-09T14:10:26.349Z,27.30
2018-05-09T14:12:54.423Z,27.30
2018-05-09T14:15:22.536Z,26.20
2018-05-09T14:17:51.412Z,25.40
2018-05-09T14:20:19.472Z,25.10
2018-05-09T14:22:47.549Z,24.80
2018-05-09T14:25:16.298Z,25.80
2018-05-09T14:27:44.269Z,26.30
2018-05-09T14:30:12.361Z,26.50
2018-05-09T14:32:40.765Z,28.60
2018-05-09T14:35:08.804Z,30.10
2018-05-09T14:37:36.877Z,30.70
2018-05-09T14:40:05.869Z,30.80
2018-05-09T14:42:33.932Z,31.80
2018-05-09T14:45:04.981Z,32.20
2018-05-09T14:47:34.598Z,32.30
2018-05-09T14:50:03.504Z,31.50
2018-05-09T14:52:32.320Z,30.80
2018-05-09T14:55:01.197Z,29.10
2018-05-09T14:57:29.260Z,29.00
2018-05-09T14:59:57.629Z,28.80
2018-05-09T15:02:25.692Z,29.10
2018-05-09T15:04:53.765Z,28.90
2018-05-09T15:07:22.966Z,28.20
2018-05-09T15:09:51.051Z,28.10
2018-05-09T15:12:19.109Z,27.50
2018-05-09T15:14:47.469Z,28.10
2018-05-09T15:17:15.542Z,28.80
2018-05-09T15:19:43.634Z,30.00
2018-05-09T15:22:12.200Z,31.30
2018-05-09T15:24:40.935Z,31.80
2018-05-09T15:27:10.380Z,33.30
2018-05-09T15:29:39.125Z,33.20
2018-05-09T15:32:08.833Z,32.30
2018-05-09T15:34:37.669Z,33.50
2018-05-09T15:37:06.417Z,33.40
2018-05-09T15:39:35.269Z,33.60
2018-05-09T15:42:03.374Z,33.60
2018-05-09T15:44:32.233Z,33.40
2018-05-09T15:47:00.338Z,33.30
2018-05-09T15:49:29.197Z,33.60
2018-05-09T15:51:57.560Z,33.60
2018-05-09T15:54:25.621Z,33.90
2018-05-09T15:56:53.697Z,33.30
2018-05-09T15:59:22.274Z,33.30
2018-05-09T16:01:50.343Z,33.40
2018-05-09T16:04:18.420Z,33.10
2018-05-09T16:06:46.533Z,33.00
2018-05-09T16:09:15.404Z,33.70
2018-05-09T16:11:43.473Z,33.70
2018-05-09T16:14:11.882Z,33.40
2018-05-09T16:16:39.967Z,34.50
2018-05-09T16:19:08.837Z,34.00
2018-05-09T16:21:37.297Z,34.00
2018-05-09T16:24:05.351Z,33.50
2018-05-09T16:26:34.156Z,33.00
2018-05-09T16:29:02.253Z,33.80
2018-05-09T16:31:31.921Z,33.20
2018-05-09T16:34:00.000Z,33.20
2018-05-09T16:36:28.105Z,33.30
2018-05-09T16:38:56.469Z,33.80
2018-05-09T16:41:24.556Z,34.10
2018-05-09T16:43:52.646Z,34.50
2018-05-09T16:46:22.425Z,35.60
2018-05-09T16:48:50.488Z,35.60
2018-05-09T16:51:18.548Z,35.50
2018-05-09T16:53:46.929Z,35.70
2018-05-09T16:56:15.025Z,35.80
2018-05-09T16:58:43.872Z,35.60
2018-05-09T17:01:12.059Z,35.60
2018-05-09T17:03:40.037Z,35.60
2018-05-09T17:06:09.647Z,36.10
2018-05-09T17:08:37.706Z,35.90
2018-05-09T17:11:05.818Z,36.60
2018-05-09T17:13:34.705Z,36.30
2018-05-09T17:16:04.265Z,37.20
2018-05-09T17:18:32.342Z,37.30
2018-05-09T17:21:00.455Z,36.90
2018-05-09T17:23:28.613Z,37.40
2018-05-09T17:25:57.404Z,37.80
2018-05-09T17:28:25.505Z,38.10
2018-05-09T17:30:55.261Z,38.70
2018-05-09T17:33:23.357Z,38.80
2018-05-09T17:35:51.445Z,38.90
2018-05-09T17:38:20.322Z,41.60
2018-05-09T17:40:48.401Z,41.50
2018-05-09T17:43:16.444Z,39.90
2018-05-09T17:45:44.553Z,42.80
2018-05-09T17:48:13.417Z,44.20
2018-05-09T17:50:41.501Z,44.00
2018-05-09T17:53:09.601Z,44.30
2018-05-09T17:55:38.672Z,45.10
2018-05-09T17:58:06.720Z,45.10
2018-05-09T18:00:35.122Z,45.70
2018-05-09T18:03:04.089Z,46.30
2018-05-09T18:05:32.193Z,47.00
2018-05-09T18:08:00.269Z,47.60
2018-05-09T18:10:29.120Z,48.80
2018-05-09T18:12:57.196Z,48.80
2018-05-09T18:15:26.185Z,49.60
2018-05-09T18:17:54.277Z,50.20
2018-05-09T18:20:22.356Z,51.10
2018-05-09T18:22:50.442Z,51.10
2018-05-09T18:25:20.029Z,54.10
2018-05-09T18:27:48.079Z,53.70
2018-05-09T18:30:16.153Z,54.60
2018-05-09T18:32:44.529Z,55.20
2018-05-09T18:35:12.621Z,55.00
2018-05-09T18:37:40.705Z,54.70
2018-05-09T18:40:09.947Z,55.10
2018-05-09T18:42:37.992Z,54.50
2018-05-09T18:45:06.845Z,55.50
2018-05-09T18:47:35.113Z,55.50
2018-05-09T18:50:03.215Z,55.80
2018-05-09T18:52:31.289Z,55.70
2018-05-09T18:55:00.481Z,56.20
2018-05-09T18:57:28.557Z,56.00
2018-05-09T18:59:57.456Z,57.10
2018-05-09T19:02:25.809Z,57.10
2018-05-09T19:04:53.877Z,57.30
2018-05-09T19:07:21.969Z,57.90
2018-05-09T19:09:51.021Z,58.60
2018-05-09T19:12:19.104Z,58.70
2018-05-09T19:14:47.165Z,59.30
2018-05-09T19:17:15.557Z,59.50
2018-05-09T19:19:43.624Z,59.80
2018-05-09T19:22:11.725Z,60.50
2018-05-09T19:24:40.084Z,61.20
2018-05-09T19:27:08.976Z,62.30
2018-05-09T19:29:37.048Z,62.30
2018-05-09T19:32:05.125Z,62.50
2018-05-09T19:34:33.505Z,62.90
2018-05-09T19:37:01.574Z,63.00
2018-05-09T19:39:29.657Z,63.20
2018-05-09T19:41:58.498Z,63.20
2018-05-09T19:44:26.569Z,63.20
2018-05-09T19:46:54.640Z,63.50
2018-05-09T19:49:22.726Z,63.50
2018-05-09T19:51:50.817Z,63.90
2018-05-09T19:54:18.909Z,63.40
2018-05-09T19:56:47.293Z,62.80
2018-05-09T19:59:15.374Z,63.20
2018-05-09T20:01:43.417Z,63.20
2018-05-09T20:04:11.509Z,63.90
2018-05-09T20:06:40.373Z,64.30
2018-05-09T20:09:08.472Z,64.30
2018-05-09T20:11:37.361Z,64.70
2018-05-09T20:14:06.193Z,64.60
2018-05-09T20:16:35.016Z,64.40
2018-05-09T20:19:03.105Z,65.20
2018-05-09T20:21:31.181Z,64.90
2018-05-09T20:24:00.321Z,65.10
2018-05-09T20:26:28.391Z,65.10
2018-05-09T20:28:56.525Z,65.60
2018-05-09T20:31:25.744Z,67.10
2018-05-09T20:33:53.798Z,67.00
2018-05-09T20:36:22.630Z,67.30
2018-05-09T20:38:50.713Z,67.10
2018-05-09T20:41:18.881Z,68.70
2018-05-09T20:43:47.721Z,68.20
2018-05-09T20:46:16.585Z,68.60
2018-05-09T20:48:44.656Z,68.40
2018-05-09T20:51:12.972Z,68.80
2018-05-09T20:53:41.822Z,69.40
2018-05-09T20:56:09.877Z,69.40
2018-05-09T20:58:38.285Z,69.60
2018-05-09T21:01:06.349Z,69.40
2018-05-09T21:03:34.428Z,70.20
2018-05-09T21:06:02.793Z,70.70
2018-05-09T21:08:30.878Z,71.20
2018-05-09T21:10:58.927Z,71.70
2018-05-09T21:13:27.313Z,71.40
2018-05-09T21:15:55.378Z,71.10
2018-05-09T21:18:23.457Z,71.00
2018-05-09T21:20:52.352Z,71.40
2018-05-09T21:23:20.437Z,71.90
2018-05-09T21:25:49.268Z,72.60
2018-05-09T21:28:17.387Z,72.60
2018-05-09T21:30:45.453Z,72.60
2018-05-09T21:33:13.529Z,72.40
2018-05-09T21:35:41.601Z,72.10
2018-05-09T21:38:09.685Z,72.30
2018-05-09T21:40:37.768Z,72.60
2018-05-09T21:43:06.628Z,73.20
2018-05-09T21:45:34.789Z,73.20
2018-05-09T21:48:04.633Z,74.00
2018-05-09T21:50:32.713Z,74.10
2018-05-09T21:53:01.563Z,74.50
2018-05-09T21:55:30.436Z,74.50
2018-05-09T21:57:58.501Z,74.70
2018-05-09T22:00:26.600Z,74.70
2018-05-09T22:02:55.049Z,74.70
2018-05-09T22:05:23.073Z,75.20
2018-05-09T22:07:51.114Z,75.40
2018-05-09T22:10:19.525Z,75.80
2018-05-09T22:12:47.568Z,75.90
2018-05-09T22:15:15.625Z,76.50
2018-05-09T22:17:43.816Z,76.30
2018-05-09T22:20:12.004Z,76.40
2018-05-09T22:22:40.087Z,76.80
2018-05-09T22:25:08.466Z,77.00
2018-05-09T22:27:36.539Z,77.50
2018-05-09T22:30:04.670Z,77.20
2018-05-09T22:32:32.965Z,77.90
2018-05-09T22:35:01.013Z,77.40
2018-05-09T22:37:29.108Z,77.30
2018-05-09T22:39:57.413Z,77.40
2018-05-09T22:42:26.242Z,77.70
2018-05-09T22:44:54.437Z,77.60
2018-05-09T22:47:22.864Z,77.80
2018-05-09T22:49:51.721Z,78.00
2018-05-09T22:52:19.769Z,77.80
2018-05-09T22:54:47.837Z,78.10
2018-05-09T22:57:16.138Z,78.20
2018-05-09T22:59:44.192Z,78.20
2018-05-09T23:02:12.573Z,78.10
2018-05-09T23:04:40.624Z,78.20
2018-05-09T23:07:08.733Z,78.40
2018-05-09T23:09:36.792Z,78.40
2018-05-09T23:12:04.881Z,78.60
2018-05-09T23:14:32.953Z,78.90
2018-05-09T23:17:01.124Z,79.20
2018-05-09T23:19:29.175Z,79.50
2018-05-09T23:21:57.229Z,79.70
2018-05-09T23:24:25.603Z,79.50
2018-05-09T23:26:54.433Z,79.70
2018-05-09T23:29:23.297Z,79.50
2018-05-09T23:31:51.695Z,79.50
2018-05-09T23:34:19.834Z,79.40
2018-05-09T23:36:47.926Z,79.60
2018-05-09T23:39:16.332Z,79.50
2018-05-09T23:41:44.415Z,79.60
2018-05-09T23:44:13.252Z,80.20
2018-05-09T23:46:41.854Z,80.10
2018-05-09T23:49:09.962Z,79.90
2018-05-09T23:51:38.827Z,80.20
2018-05-09T23:54:06.928Z,80.10
2018-05-09T23:56:35.820Z,80.00
2018-05-09T23:59:04.813Z,79.90
